createdAt,value
2023-03-02T00:00:38.358Z,5.70
2023-03-02T00:01:38.401Z,6.20
2023-03-02T00:02:38.598Z,6.10
2023-03-02T00:03:38.408Z,6.00
2023-03-02T00:04:38.322Z,6.10
2023-03-02T00:05:38.361Z,5.60
2023-03-02T00:06:38.315Z,5.90
2023-03-02T00:07:38.300Z,6.10
2023-03-02T00:08:39.343Z,5.90
2023-03-02T00:09:38.319Z,5.80
2023-03-02T00:10:38.272Z,5.60
2023-03-02T00:11:38.334Z,5.50
2023-03-02T00:12:38.247Z,6.10
2023-03-02T00:13:38.360Z,5.70
2023-03-02T00:14:38.283Z,5.90
2023-03-02T00:15:38.281Z,5.80
2023-03-02T00:16:38.235Z,5.50
2023-03-02T00:17:38.181Z,5.80
2023-03-02T00:18:38.245Z,5.70
2023-03-02T00:19:38.207Z,5.60
2023-03-02T00:20:38.183Z,5.90
2023-03-02T00:21:38.450Z,5.70
2023-03-02T00:22:38.187Z,6.00
2023-03-02T00:23:38.150Z,5.80
2023-03-02T00:24:38.198Z,5.60
2023-03-02T00:25:38.165Z,5.60
2023-03-02T00:26:38.169Z,5.70
2023-03-02T00:27:38.149Z,6.10
2023-03-02T00:28:38.141Z,6.10
2023-03-02T00:29:38.118Z,5.60
2023-03-02T00:30:38.175Z,6.00
2023-03-02T00:31:38.177Z,6.20
2023-03-02T00:32:38.054Z,6.10
2023-03-02T00:33:38.098Z,6.00
2023-03-02T00:34:38.088Z,6.30
2023-03-02T00:35:38.129Z,5.80
2023-03-02T00:36:38.028Z,6.10
2023-03-02T00:37:38.058Z,6.80
2023-03-02T00:38:38.023Z,6.90
2023-03-02T00:39:38.055Z,6.70
2023-03-02T00:40:38.018Z,6.10
2023-03-02T00:41:38.011Z,6.00
2023-03-02T00:42:38.112Z,5.80
2023-03-02T00:43:37.958Z,5.60
2023-03-02T00:44:38.023Z,6.30
2023-03-02T00:45:37.897Z,5.90
2023-03-02T00:46:38.101Z,6.90
2023-03-02T00:47:37.942Z,5.50
2023-03-02T00:48:38.008Z,6.00
2023-03-02T00:49:37.887Z,5.90
2023-03-02T00:50:37.879Z,5.30
2023-03-02T00:51:37.906Z,5.30
2023-03-02T00:52:37.885Z,5.20
2023-03-02T00:53:37.936Z,5.80
2023-03-02T00:54:37.811Z,5.30
2023-03-02T00:55:37.841Z,5.40
2023-03-02T00:56:37.874Z,5.90
2023-03-02T00:57:37.799Z,5.90
2023-03-02T00:58:37.818Z,6.00
2023-03-02T00:59:37.837Z,5.70
2023-03-02T01:00:37.935Z,5.20
2023-03-02T01:01:37.875Z,5.40
2023-03-02T01:02:38.955Z,6.10
2023-03-02T01:03:37.812Z,5.70
2023-03-02T01:04:37.781Z,5.50
2023-03-02T01:05:37.911Z,5.60
2023-03-02T01:06:37.828Z,5.80
2023-03-02T01:07:37.819Z,5.90
2023-03-02T01:08:37.701Z,5.90
2023-03-02T01:09:37.761Z,5.70
2023-03-02T01:10:37.688Z,5.70
2023-03-02T01:11:37.706Z,5.60
2023-03-02T01:12:37.831Z,5.50
2023-03-02T01:13:37.675Z,5.90
2023-03-02T01:14:37.735Z,5.60
2023-03-02T01:15:37.662Z,5.60
2023-03-02T01:16:37.804Z,6.00
2023-03-02T01:17:37.646Z,6.40
2023-03-02T01:18:37.646Z,5.90
2023-03-02T01:19:37.671Z,6.10
2023-03-02T01:20:37.632Z,6.60
2023-03-02T01:21:37.656Z,6.00
2023-03-02T01:22:37.546Z,6.40
2023-03-02T01:23:37.593Z,6.40
2023-03-02T01:24:37.620Z,6.70
2023-03-02T01:25:37.557Z,6.20
2023-03-02T01:26:37.549Z,6.70
2023-03-02T01:27:37.517Z,6.50
2023-03-02T01:28:37.604Z,6.20
2023-03-02T01:29:37.509Z,6.20
2023-03-02T01:30:37.495Z,6.30
2023-03-02T01:31:37.565Z,6.30
2023-03-02T01:32:37.622Z,6.70
2023-03-02T01:33:37.500Z,6.20
2023-03-02T01:34:37.453Z,6.20
2023-03-02T01:35:38.539Z,6.60
2023-03-02T01:36:37.466Z,6.20
2023-03-02T01:37:37.508Z,6.60
2023-03-02T01:38:37.544Z,6.20
2023-03-02T01:39:38.230Z,6.60
2023-03-02T01:40:37.413Z,6.10
2023-03-02T01:41:37.387Z,6.70
2023-03-02T01:42:37.535Z,6.40
2023-03-02T01:43:37.396Z,6.20
2023-03-02T01:44:37.423Z,6.00
2023-03-02T01:45:37.440Z,6.60
2023-03-02T01:46:37.436Z,6.30
2023-03-02T01:47:37.403Z,6.20
2023-03-02T01:48:37.307Z,6.50
2023-03-02T01:49:37.346Z,6.40
2023-03-02T01:50:37.412Z,6.50
2023-03-02T01:51:37.435Z,6.40
2023-03-02T01:52:37.296Z,6.30
2023-03-02T01:53:37.271Z,6.60
2023-03-02T01:54:37.278Z,6.30
2023-03-02T01:55:37.293Z,6.30
2023-03-02T01:56:37.270Z,6.40
2023-03-02T01:57:37.314Z,6.80
2023-03-02T01:58:37.287Z,6.20
2023-03-02T01:59:37.217Z,6.20
2023-03-02T02:00:37.291Z,6.40
2023-03-02T02:01:37.265Z,6.70
2023-03-02T02:02:37.259Z,6.30
2023-03-02T02:03:37.220Z,6.70
2023-03-02T02:04:37.185Z,6.40
2023-03-02T02:05:37.315Z,6.40
2023-03-02T02:06:37.179Z,6.30
2023-03-02T02:07:37.285Z,6.20
2023-03-02T02:08:37.159Z,6.60
2023-03-02T02:09:37.229Z,6.70
2023-03-02T02:10:37.089Z,6.50
2023-03-02T02:11:37.252Z,6.50
2023-03-02T02:12:37.858Z,6.40
2023-03-02T02:13:37.093Z,5.90
2023-03-02T02:14:37.159Z,6.50
2023-03-02T02:15:37.098Z,6.60
2023-03-02T02:16:37.308Z,6.50
2023-03-02T02:17:37.207Z,6.40
2023-03-02T02:18:37.069Z,5.80
2023-03-02T02:19:37.069Z,6.40
2023-03-02T02:20:37.028Z,6.40
2023-03-02T02:21:37.044Z,6.40
2023-03-02T02:22:37.094Z,6.30
2023-03-02T02:23:37.111Z,6.10
2023-03-02T02:24:37.087Z,6.00
2023-03-02T02:25:37.067Z,6.40
2023-03-02T02:26:37.032Z,6.00
2023-03-02T02:27:37.092Z,6.50
2023-03-02T02:28:37.007Z,6.50
2023-03-02T02:29:36.994Z,6.00
2023-03-02T02:30:36.972Z,5.50
2023-03-02T02:31:37.022Z,5.80
2023-03-02T02:32:37.076Z,5.90
2023-03-02T02:33:36.964Z,6.40
2023-03-02T02:34:36.992Z,6.00
2023-03-02T02:35:36.984Z,6.10
2023-03-02T02:36:36.968Z,5.70
2023-03-02T02:37:37.173Z,6.20
2023-03-02T02:38:36.867Z,6.20
2023-03-02T02:39:36.986Z,6.00
2023-03-02T02:40:36.939Z,6.30
2023-03-02T02:41:36.906Z,6.10
2023-03-02T02:42:36.951Z,5.70
2023-03-02T02:43:36.892Z,6.00
2023-03-02T02:44:36.854Z,5.80
2023-03-02T02:45:36.842Z,5.90
2023-03-02T02:46:36.823Z,6.00
2023-03-02T02:47:36.895Z,6.10
2023-03-02T02:48:36.830Z,6.00
2023-03-02T02:49:36.804Z,5.10
2023-03-02T02:50:36.802Z,6.00
2023-03-02T02:51:36.879Z,5.90
2023-03-02T02:52:36.828Z,5.80
2023-03-02T02:53:36.973Z,5.00
2023-03-02T02:54:36.848Z,5.80
2023-03-02T02:55:36.749Z,5.70
2023-03-02T02:56:36.706Z,5.30
2023-03-02T02:57:36.765Z,5.40
2023-03-02T02:58:36.737Z,5.80
2023-03-02T02:59:36.678Z,5.50
2023-03-02T03:00:36.742Z,6.00
2023-03-02T03:01:36.678Z,6.00
2023-03-02T03:02:36.645Z,6.20
2023-03-02T03:03:36.694Z,6.20
2023-03-02T03:04:36.678Z,6.20
2023-03-02T03:05:36.790Z,5.90
2023-03-02T03:06:36.626Z,6.20
2023-03-02T03:07:36.715Z,5.80
2023-03-02T03:08:36.579Z,5.90
2023-03-02T03:09:36.695Z,5.90
2023-03-02T03:10:36.624Z,6.30
2023-03-02T03:11:36.579Z,5.80
2023-03-02T03:12:36.661Z,6.20
2023-03-02T03:13:36.554Z,6.30
2023-03-02T03:14:36.894Z,6.20
2023-03-02T03:15:36.524Z,6.00
2023-03-02T03:16:36.602Z,6.10
2023-03-02T03:17:36.523Z,6.10
2023-03-02T03:18:36.494Z,6.40
2023-03-02T03:19:37.369Z,6.40
2023-03-02T03:20:36.481Z,5.90
2023-03-02T03:21:36.540Z,6.20
2023-03-02T03:22:36.498Z,6.20
2023-03-02T03:23:36.529Z,5.90
2023-03-02T03:24:36.473Z,6.00
2023-03-02T03:25:36.425Z,6.10
2023-03-02T03:26:36.452Z,6.00
2023-03-02T03:27:36.488Z,6.20
2023-03-02T03:28:36.470Z,6.30
2023-03-02T03:29:36.372Z,5.80
2023-03-02T03:30:36.450Z,6.20
2023-03-02T03:31:36.384Z,6.40
2023-03-02T03:32:36.399Z,5.90
2023-03-02T03:33:36.468Z,6.30
2023-03-02T03:34:36.388Z,6.40
2023-03-02T03:35:36.473Z,6.10
2023-03-02T03:36:36.323Z,6.00
2023-03-02T03:37:36.350Z,6.40
2023-03-02T03:38:36.379Z,6.60
2023-03-02T03:39:36.377Z,6.40
2023-03-02T03:40:36.316Z,6.40
2023-03-02T03:41:36.288Z,6.50
2023-03-02T03:42:36.480Z,6.40
2023-03-02T03:43:36.321Z,6.20
2023-03-02T03:44:36.406Z,6.50
2023-03-02T03:45:36.282Z,6.00
2023-03-02T03:46:36.676Z,6.50
2023-03-02T03:47:36.261Z,6.00
2023-03-02T03:48:36.203Z,6.00
2023-03-02T03:49:36.216Z,6.20
2023-03-02T03:50:36.245Z,5.90
2023-03-02T03:51:36.336Z,6.30
2023-03-02T03:52:36.211Z,6.50
2023-03-02T03:53:36.863Z,6.30
2023-03-02T03:54:36.192Z,6.20
2023-03-02T03:55:36.160Z,6.00
2023-03-02T03:56:36.233Z,6.20
2023-03-02T03:57:36.214Z,6.10
2023-03-02T03:58:36.184Z,6.10
2023-03-02T03:59:36.157Z,6.30
2023-03-02T04:00:36.214Z,6.60
2023-03-02T04:01:36.323Z,6.60
2023-03-02T04:02:36.226Z,6.40
2023-03-02T04:03:36.090Z,6.40
2023-03-02T04:04:36.053Z,7.00
2023-03-02T04:05:36.092Z,6.30
2023-03-02T04:06:36.108Z,6.30
2023-03-02T04:07:36.164Z,6.10
2023-03-02T04:08:36.062Z,6.30
2023-03-02T04:09:36.021Z,6.20
2023-03-02T04:10:36.053Z,6.30
2023-03-02T04:11:35.969Z,6.70
2023-03-02T04:12:36.014Z,6.00
2023-03-02T04:13:36.007Z,6.20
2023-03-02T04:14:36.724Z,6.40
2023-03-02T04:15:36.017Z,6.00
2023-03-02T04:16:35.994Z,6.50
2023-03-02T04:17:36.053Z,6.40
2023-03-02T04:18:35.998Z,6.20
2023-03-02T04:19:36.179Z,6.50
2023-03-02T04:20:36.007Z,6.80
2023-03-02T04:21:36.194Z,6.40
2023-03-02T04:22:35.952Z,6.30
2023-03-02T04:23:35.972Z,6.60
2023-03-02T04:24:35.937Z,6.60
2023-03-02T04:25:35.933Z,6.50
2023-03-02T04:26:36.014Z,6.80
2023-03-02T04:27:35.967Z,6.50
2023-03-02T04:28:35.877Z,5.90
2023-03-02T04:29:36.864Z,6.40
2023-03-02T04:30:35.822Z,5.80
2023-03-02T04:31:35.835Z,6.00
2023-03-02T04:32:35.892Z,6.30
2023-03-02T04:33:35.861Z,6.30
2023-03-02T04:34:35.827Z,5.90
2023-03-02T04:35:35.881Z,6.00
2023-03-02T04:36:36.060Z,6.60
2023-03-02T04:37:35.818Z,6.60
2023-03-02T04:38:35.757Z,6.50
2023-03-02T04:39:35.807Z,6.80
2023-03-02T04:40:35.926Z,6.70
2023-03-02T04:41:35.750Z,6.60
2023-03-02T04:42:35.786Z,6.50
2023-03-02T04:43:35.733Z,6.30
2023-03-02T04:44:35.789Z,6.30
2023-03-02T04:45:35.799Z,6.50
2023-03-02T04:46:36.155Z,6.10
2023-03-02T04:47:35.757Z,5.90
2023-03-02T04:48:35.674Z,6.40
2023-03-02T04:49:35.689Z,6.10
2023-03-02T04:50:35.700Z,5.80
2023-03-02T04:51:35.736Z,6.30
2023-03-02T04:52:35.658Z,6.90
2023-03-02T04:53:37.219Z,6.30
2023-03-02T04:54:35.644Z,7.00
2023-03-02T04:55:35.616Z,6.40
2023-03-02T04:56:35.786Z,6.50
2023-03-02T04:57:35.636Z,6.50
2023-03-02T04:58:36.214Z,6.90
2023-03-02T04:59:35.563Z,6.40
2023-03-02T05:00:35.581Z,6.40
2023-03-02T05:01:35.537Z,6.60
2023-03-02T05:02:35.599Z,6.70
2023-03-02T05:03:35.568Z,6.80
2023-03-02T05:04:35.517Z,6.60
2023-03-02T05:05:36.177Z,6.60
2023-03-02T05:06:35.555Z,6.60
2023-03-02T05:07:35.479Z,6.90
2023-03-02T05:08:35.503Z,7.00
2023-03-02T05:09:35.520Z,6.60
2023-03-02T05:10:35.576Z,6.80
2023-03-02T05:11:35.437Z,7.00
2023-03-02T05:12:35.518Z,6.60
2023-03-02T05:13:35.478Z,6.80
2023-03-02T05:14:35.443Z,6.80
2023-03-02T05:15:35.432Z,6.20
2023-03-02T05:16:35.893Z,5.90
2023-03-02T05:17:35.426Z,6.20
2023-03-02T05:18:35.400Z,6.30
2023-03-02T05:19:35.419Z,5.70
2023-03-02T05:20:35.379Z,6.00
2023-03-02T05:21:35.360Z,6.10
2023-03-02T05:22:35.349Z,5.90
2023-03-02T05:23:35.371Z,6.30
2023-03-02T05:24:35.395Z,5.90
2023-03-02T05:25:35.309Z,6.60
2023-03-02T05:26:35.632Z,6.40
2023-03-02T05:27:35.294Z,6.20
2023-03-02T05:28:35.324Z,5.90
2023-03-02T05:29:35.248Z,6.20
2023-03-02T05:30:36.344Z,6.40
2023-03-02T05:31:36.390Z,6.20
2023-03-02T05:32:35.293Z,6.00
2023-03-02T05:33:35.872Z,6.40
2023-03-02T05:34:35.237Z,6.20
2023-03-02T05:35:35.471Z,6.40
2023-03-02T05:36:35.589Z,6.00
2023-03-02T05:37:35.268Z,6.10
2023-03-02T05:38:35.775Z,6.40
2023-03-02T05:39:35.209Z,6.10
2023-03-02T05:40:35.194Z,6.40
2023-03-02T05:41:35.151Z,6.80
2023-03-02T05:42:35.213Z,7.00
2023-03-02T05:43:35.162Z,6.20
2023-03-02T05:44:35.177Z,7.00
2023-03-02T05:45:35.140Z,6.50
2023-03-02T05:46:35.551Z,6.50
2023-03-02T05:47:35.165Z,6.60
2023-03-02T05:48:35.130Z,6.10
2023-03-02T05:49:35.092Z,6.10
2023-03-02T05:50:35.113Z,6.20
2023-03-02T05:51:35.110Z,5.80
2023-03-02T05:52:35.075Z,5.80
2023-03-02T05:53:35.093Z,6.20
2023-03-02T05:54:35.071Z,5.90
2023-03-02T05:55:35.096Z,6.20
2023-03-02T05:56:35.338Z,6.40
2023-03-02T05:57:35.027Z,6.30
2023-03-02T05:58:35.040Z,6.10
2023-03-02T05:59:35.035Z,6.00
2023-03-02T06:00:35.034Z,6.20
2023-03-02T06:01:35.443Z,6.20
2023-03-02T06:02:34.976Z,6.40
2023-03-02T06:03:34.986Z,5.70
2023-03-02T06:04:34.997Z,6.70
2023-03-02T06:05:34.936Z,6.20
2023-03-02T06:06:35.450Z,6.30
2023-03-02T06:07:34.938Z,6.20
2023-03-02T06:08:35.038Z,5.90
2023-03-02T06:09:34.907Z,6.20
2023-03-02T06:10:34.954Z,6.30
2023-03-02T06:11:34.863Z,6.40
2023-03-02T06:12:35.650Z,5.80
2023-03-02T06:13:34.914Z,5.90
2023-03-02T06:14:34.875Z,6.20
2023-03-02T06:15:34.849Z,6.20
2023-03-02T06:16:35.193Z,6.00
2023-03-02T06:17:34.830Z,6.70
2023-03-02T06:18:34.862Z,6.40
2023-03-02T06:32:37.192Z,4.90
2023-03-02T06:33:36.972Z,6.00
2023-03-02T06:34:36.967Z,6.50
2023-03-02T06:35:36.993Z,6.70
2023-03-02T06:36:38.272Z,8.30
2023-03-02T06:37:38.083Z,8.00
2023-03-02T06:38:38.193Z,7.50
2023-03-02T06:39:38.125Z,7.20
2023-03-02T06:40:38.108Z,7.10
2023-03-02T06:41:38.078Z,7.10
2023-03-02T06:42:38.046Z,8.00
2023-03-02T06:43:38.050Z,8.10
2023-03-02T06:44:38.019Z,7.80
2023-03-02T06:45:38.617Z,9.20
2023-03-02T06:46:38.067Z,8.60
2023-03-02T06:47:38.070Z,8.00
2023-03-02T06:48:38.046Z,7.60
2023-03-02T06:49:38.047Z,7.80
2023-03-02T06:50:38.010Z,7.50
2023-03-02T06:51:37.985Z,7.90
2023-03-02T06:52:37.963Z,7.60
2023-03-02T06:53:38.005Z,7.80
2023-03-02T06:54:37.966Z,7.30
2023-03-02T06:55:37.912Z,8.40
2023-03-02T06:56:40.072Z,7.90
2023-03-02T06:57:37.932Z,7.50
2023-03-02T06:58:37.893Z,7.10
2023-03-02T06:59:37.912Z,7.30
2023-03-02T07:00:37.866Z,7.40
2023-03-02T07:01:37.906Z,7.50
2023-03-02T07:02:37.875Z,7.30
2023-03-02T07:03:37.973Z,7.00
2023-03-02T07:04:37.872Z,7.60
2023-03-02T07:05:37.830Z,7.00
2023-03-02T07:06:37.893Z,7.10
2023-03-02T07:07:37.824Z,7.20
2023-03-02T07:08:37.825Z,6.50
2023-03-02T07:09:37.763Z,6.60
2023-03-02T07:10:37.772Z,6.70
2023-03-02T07:11:37.775Z,6.70
2023-03-02T07:12:37.731Z,7.00
2023-03-02T07:13:37.888Z,6.80
2023-03-02T07:14:37.770Z,7.00
2023-03-02T07:15:37.808Z,6.20
2023-03-02T07:16:37.787Z,6.50
2023-03-02T07:17:37.769Z,6.20
2023-03-02T07:18:37.768Z,6.70
2023-03-02T07:19:40.777Z,6.40
2023-03-02T07:20:39.311Z,6.30
2023-03-02T07:21:37.767Z,6.20
2023-03-02T07:22:38.046Z,6.60
2023-03-02T07:23:37.721Z,6.70
2023-03-02T07:24:37.720Z,6.50
2023-03-02T07:25:37.783Z,6.30
2023-03-02T07:26:37.707Z,5.80
2023-03-02T07:27:37.620Z,6.20
2023-03-02T07:28:37.638Z,6.10
2023-03-02T07:29:37.578Z,6.50
2023-03-02T07:30:37.646Z,6.40
2023-03-02T07:31:37.628Z,6.30
2023-03-02T07:32:37.699Z,6.50
2023-03-02T07:33:37.568Z,6.80
2023-03-02T07:34:37.602Z,6.50
2023-03-02T07:35:37.611Z,6.70
2023-03-02T07:36:37.648Z,6.10
2023-03-02T07:37:37.603Z,5.80
2023-03-02T07:38:37.571Z,6.70
2023-03-02T07:39:37.567Z,6.50
2023-03-02T07:40:37.645Z,6.60
2023-03-02T07:41:37.563Z,6.00
2023-03-02T07:42:37.505Z,6.10
2023-03-02T07:43:37.586Z,6.20
2023-03-02T07:44:37.546Z,6.60
2023-03-02T07:45:37.506Z,6.10
2023-03-02T07:46:37.599Z,5.70
2023-03-02T07:47:37.482Z,6.10
2023-03-02T07:48:37.563Z,6.70
2023-03-02T07:49:37.460Z,6.10
2023-03-02T07:50:37.483Z,6.60
2023-03-02T07:51:37.426Z,6.30
2023-03-02T07:52:37.446Z,6.00
2023-03-02T07:53:37.540Z,6.30
2023-03-02T07:54:37.367Z,5.80
2023-03-02T07:55:37.395Z,6.30
2023-03-02T07:56:37.406Z,6.10
2023-03-02T07:57:37.351Z,6.20
2023-03-02T07:58:37.362Z,6.20
2023-03-02T07:59:37.318Z,5.90
2023-03-02T08:00:37.800Z,5.70
2023-03-02T08:01:37.322Z,5.40
2023-03-02T08:02:38.513Z,5.00
2023-03-02T08:03:37.389Z,4.90
2023-03-02T08:04:37.279Z,5.10
2023-03-02T08:05:38.948Z,5.00
2023-03-02T08:06:37.603Z,4.70
2023-03-02T08:07:37.216Z,4.60
2023-03-02T08:08:37.338Z,4.70
2023-03-02T08:09:37.219Z,4.40
2023-03-02T08:10:37.198Z,4.70
2023-03-02T08:11:37.197Z,4.70
2023-03-02T08:12:37.261Z,4.60
2023-03-02T08:13:37.334Z,4.60
2023-03-02T08:14:37.327Z,4.60
2023-03-02T08:15:37.138Z,5.20
2023-03-02T08:16:37.250Z,4.80
2023-03-02T08:17:37.132Z,4.60
2023-03-02T08:18:37.134Z,4.40
2023-03-02T08:19:37.146Z,4.50
2023-03-02T08:20:37.181Z,4.40
2023-03-02T08:21:37.116Z,4.80
2023-03-02T08:22:37.058Z,4.70
2023-03-02T08:23:37.116Z,4.70
2023-03-02T08:24:37.111Z,4.50
2023-03-02T08:25:37.742Z,4.60
2023-03-02T08:26:37.091Z,4.60
2023-03-02T08:27:37.022Z,4.90
2023-03-02T08:28:37.029Z,4.50
2023-03-02T08:29:37.097Z,4.70
2023-03-02T08:30:36.992Z,4.20
2023-03-02T08:31:37.242Z,4.50
2023-03-02T08:32:37.199Z,4.90
2023-03-02T08:33:37.423Z,4.20
2023-03-02T08:34:37.343Z,4.40
2023-03-02T08:35:37.536Z,4.50
2023-03-02T08:36:37.198Z,4.40
2023-03-02T08:37:37.322Z,4.40
2023-03-02T08:38:37.330Z,4.40
2023-03-02T08:39:37.046Z,4.60
2023-03-02T08:40:37.135Z,4.50
2023-03-02T08:41:37.137Z,4.40
2023-03-02T08:42:37.499Z,4.30
2023-03-02T08:43:36.981Z,4.30
2023-03-02T08:44:37.094Z,4.70
2023-03-02T08:45:37.756Z,4.60
2023-03-02T08:46:37.193Z,4.40
2023-03-02T08:47:37.121Z,4.60
2023-03-02T08:48:36.845Z,4.20
2023-03-02T08:49:40.437Z,4.80
2023-03-02T08:50:36.892Z,4.60
2023-03-02T08:51:36.834Z,4.10
2023-03-02T08:52:36.816Z,4.30
2023-03-02T08:53:36.815Z,4.60
2023-03-02T08:54:36.805Z,4.50
2023-03-02T08:55:36.853Z,4.10
2023-03-02T08:56:37.112Z,4.30
2023-03-02T08:57:36.801Z,4.10
2023-03-02T08:58:36.730Z,4.50
2023-03-02T08:59:37.517Z,4.30
2023-03-02T09:00:36.750Z,4.30
2023-03-02T09:01:37.778Z,4.10
2023-03-02T09:02:37.684Z,4.60
2023-03-02T09:03:36.647Z,4.40
2023-03-02T09:04:36.961Z,4.10
2023-03-02T09:05:36.902Z,4.30
2023-03-02T09:06:36.862Z,4.30
2023-03-02T09:07:36.749Z,4.60
2023-03-02T09:08:37.152Z,4.30
2023-03-02T09:09:36.619Z,4.50
2023-03-02T09:10:36.685Z,4.60
2023-03-02T09:11:36.755Z,5.20
2023-03-02T09:12:36.613Z,4.40
2023-03-02T09:13:37.880Z,4.40
2023-03-02T09:14:37.566Z,4.80
2023-03-02T09:15:36.591Z,4.90
2023-03-02T09:16:36.830Z,4.60
2023-03-02T09:17:37.149Z,4.40
2023-03-02T09:18:36.584Z,4.60
2023-03-02T09:19:36.676Z,4.70
2023-03-02T09:20:36.598Z,4.70
2023-03-02T09:21:36.508Z,4.50
2023-03-02T09:22:36.894Z,4.20
2023-03-02T09:23:36.572Z,5.00
2023-03-02T09:24:36.750Z,4.80
2023-03-02T09:25:37.197Z,4.50
2023-03-02T09:26:36.457Z,4.60
2023-03-02T09:27:36.414Z,5.40
2023-03-02T09:28:36.436Z,4.50
2023-03-02T09:29:36.495Z,4.30
2023-03-02T09:30:38.668Z,4.60
2023-03-02T09:31:37.095Z,4.60
2023-03-02T09:32:36.661Z,4.70
2023-03-02T09:33:36.477Z,4.70
2023-03-02T09:34:36.448Z,5.00
2023-03-02T09:35:36.467Z,4.50
2023-03-02T09:36:37.391Z,4.80
2023-03-02T09:37:36.481Z,5.00
2023-03-02T09:38:36.948Z,4.90
2023-03-02T09:39:36.373Z,5.50
2023-03-02T09:40:36.319Z,5.50
2023-03-02T09:41:36.501Z,4.70
2023-03-02T09:42:43.788Z,5.10
2023-03-02T09:43:37.293Z,4.60
2023-03-02T09:44:37.359Z,4.90
2023-03-02T09:45:36.801Z,4.50
2023-03-02T09:46:36.373Z,4.70
2023-03-02T09:47:36.363Z,4.90
2023-03-02T09:48:37.283Z,4.90
2023-03-02T09:49:36.293Z,4.80
2023-03-02T09:50:37.139Z,4.50
2023-03-02T09:51:36.244Z,4.80
2023-03-02T09:52:36.169Z,4.50
2023-03-02T09:53:36.292Z,4.90
2023-03-02T09:54:36.218Z,4.70
2023-03-02T09:55:36.730Z,4.60
2023-03-02T09:56:36.160Z,4.80
2023-03-02T09:57:36.432Z,4.80
2023-03-02T09:58:36.322Z,4.80
2023-03-02T09:59:36.266Z,4.70
2023-03-02T10:00:39.194Z,4.50
2023-03-02T10:01:36.136Z,4.60
2023-03-02T10:02:36.220Z,4.70
2023-03-02T10:03:36.284Z,5.10
2023-03-02T10:04:36.218Z,4.80
2023-03-02T10:05:36.129Z,4.70
2023-03-02T10:06:36.147Z,5.00
2023-03-02T10:07:36.125Z,5.10
2023-03-02T10:08:36.202Z,4.90
2023-03-02T10:09:36.178Z,4.80
2023-03-02T10:10:36.073Z,4.90
2023-03-02T10:11:36.047Z,5.00
2023-03-02T10:12:35.969Z,4.60
2023-03-02T10:13:36.138Z,4.20
2023-03-02T10:14:36.236Z,4.70
2023-03-02T10:15:35.948Z,4.60
2023-03-02T10:16:37.192Z,4.90
2023-03-02T10:17:35.959Z,4.70
2023-03-02T10:18:36.063Z,5.00
2023-03-02T10:19:37.192Z,4.80
2023-03-02T10:20:36.004Z,5.30
2023-03-02T10:21:35.892Z,5.10
2023-03-02T10:22:36.385Z,5.00
2023-03-02T10:23:36.004Z,4.80
2023-03-02T10:24:36.207Z,4.30
2023-03-02T10:25:35.927Z,4.80
2023-03-02T10:26:36.070Z,4.70
2023-03-02T10:27:37.336Z,5.30
2023-03-02T10:28:35.872Z,4.80
2023-03-02T10:29:35.926Z,5.30
2023-03-02T10:30:35.882Z,5.10
2023-03-02T10:31:35.864Z,4.90
2023-03-02T10:32:36.326Z,4.80
2023-03-02T10:33:35.856Z,5.60
2023-03-02T10:34:35.847Z,5.10
2023-03-02T10:35:37.429Z,4.80
2023-03-02T10:36:36.393Z,4.80
2023-03-02T10:37:35.867Z,5.10
2023-03-02T10:38:47.452Z,4.70
2023-03-02T10:40:12.168Z,4.80
2023-03-02T10:40:36.861Z,4.70
2023-03-02T10:43:19.739Z,4.90
2023-03-02T10:44:26.053Z,5.00
2023-03-02T10:45:19.560Z,4.90
2023-03-02T10:46:19.616Z,5.50
2023-03-02T10:47:20.289Z,5.10
2023-03-02T10:48:53.477Z,5.20
2023-03-02T10:49:22.373Z,5.20
2023-03-02T10:50:22.250Z,5.00
2023-03-02T10:51:21.515Z,4.90
2023-03-02T10:54:14.478Z,5.00
2023-03-02T10:55:14.591Z,4.70
2023-03-02T10:56:14.923Z,4.90
2023-03-02T10:57:14.905Z,5.10
2023-03-02T10:58:15.108Z,5.10
2023-03-02T10:59:14.366Z,5.20
2023-03-02T11:00:14.393Z,5.30
2023-03-02T11:01:14.533Z,4.70
2023-03-02T11:02:14.542Z,4.80
2023-03-02T11:03:14.446Z,5.00
2023-03-02T11:04:15.761Z,4.60
2023-03-02T11:05:17.754Z,4.70
2023-03-02T11:06:15.787Z,4.80
2023-03-02T11:07:17.359Z,4.70
2023-03-02T11:08:17.110Z,4.90
2023-03-02T11:09:16.954Z,4.70
2023-03-02T11:10:15.555Z,4.50
2023-03-02T11:11:15.734Z,4.60
2023-03-02T11:12:16.026Z,4.70
2023-03-02T11:13:15.581Z,4.70
2023-03-02T11:14:15.546Z,4.70
2023-03-02T11:15:15.543Z,4.50
2023-03-02T11:16:18.909Z,4.60
2023-03-02T11:17:15.982Z,4.10
2023-03-02T11:18:16.286Z,4.20
2023-03-02T11:19:15.553Z,4.20
2023-03-02T11:20:15.780Z,4.10
2023-03-02T11:21:15.616Z,4.30
2023-03-02T11:22:18.888Z,4.20
2023-03-02T11:23:15.749Z,4.00
2023-03-02T11:24:15.570Z,4.40
2023-03-02T11:25:15.475Z,4.30
2023-03-02T11:26:15.369Z,4.10
2023-03-02T11:27:15.562Z,3.90
2023-03-02T11:28:16.557Z,4.30
2023-03-02T11:29:15.496Z,4.10
2023-03-02T11:30:15.595Z,4.30
2023-03-02T11:31:23.770Z,4.20
2023-03-02T11:32:15.901Z,4.20
2023-03-02T11:33:16.205Z,4.10
2023-03-02T11:34:17.987Z,4.00
2023-03-02T11:35:17.650Z,4.10
2023-03-02T11:36:16.270Z,4.20
2023-03-02T11:37:16.777Z,3.60
2023-03-02T11:38:16.639Z,3.70
2023-03-02T11:39:16.294Z,3.80
2023-03-02T11:40:15.505Z,3.70
2023-03-02T11:41:17.411Z,3.60
2023-03-02T11:42:16.010Z,3.90
2023-03-02T11:43:15.642Z,3.50
2023-03-02T11:44:15.217Z,3.50
2023-03-02T11:45:16.029Z,3.30
2023-03-02T11:46:21.632Z,3.10
2023-03-02T11:47:16.831Z,3.00
2023-03-02T11:48:16.773Z,3.30
2023-03-02T11:49:17.309Z,3.50
2023-03-02T11:50:15.617Z,3.40
2023-03-02T11:51:15.177Z,3.30
2023-03-02T11:52:16.123Z,3.60
2023-03-02T11:53:16.101Z,3.50
2023-03-02T11:54:15.184Z,3.30
2023-03-02T11:55:15.133Z,3.90
2023-03-02T11:56:15.101Z,3.80
2023-03-02T11:57:15.072Z,3.40
2023-03-02T11:58:16.082Z,3.40
2023-03-02T11:59:15.090Z,3.50
2023-03-02T12:00:15.002Z,3.50
2023-03-02T12:01:15.163Z,3.40
2023-03-02T12:02:15.005Z,3.20
2023-03-02T12:03:15.056Z,3.20
2023-03-02T12:04:15.147Z,3.60
2023-03-02T12:05:15.461Z,3.50
2023-03-02T12:06:14.894Z,3.70
2023-03-02T12:07:14.928Z,3.30
2023-03-02T12:08:15.067Z,3.50
2023-03-02T12:09:14.939Z,3.80
2023-03-02T12:10:16.578Z,3.60
2023-03-02T12:11:15.283Z,3.80
2023-03-02T12:12:14.846Z,3.60
2023-03-02T12:13:14.998Z,4.00
2023-03-02T12:14:14.877Z,3.60
2023-03-02T12:15:14.913Z,3.80
2023-03-02T12:16:14.930Z,3.90
2023-03-02T12:17:16.525Z,3.60
2023-03-02T12:18:15.349Z,3.80
2023-03-02T12:19:14.774Z,3.90
2023-03-02T12:20:14.834Z,3.70
2023-03-02T12:21:14.806Z,3.90
2023-03-02T12:22:14.848Z,3.50
2023-03-02T12:23:14.838Z,3.60
2023-03-02T12:24:14.779Z,3.80
2023-03-02T12:25:14.769Z,3.70
2023-03-02T12:26:14.671Z,3.60
2023-03-02T12:27:16.464Z,3.80
2023-03-02T12:28:15.363Z,3.50
2023-03-02T12:29:15.262Z,4.00
2023-03-02T12:30:14.727Z,4.20
2023-03-02T12:31:15.108Z,3.50
2023-03-02T12:32:14.807Z,4.00
2023-03-02T12:33:16.865Z,3.90
2023-03-02T12:34:16.830Z,3.80
2023-03-02T12:35:14.652Z,3.90
2023-03-02T12:36:15.848Z,3.70
2023-03-02T12:37:14.683Z,4.00
2023-03-02T12:38:15.564Z,4.10
2023-03-02T12:39:14.821Z,4.10
2023-03-02T12:40:14.797Z,3.90
2023-03-02T12:41:15.189Z,4.10
2023-03-02T12:42:15.648Z,3.80
2023-03-02T12:43:14.924Z,3.50
2023-03-02T12:44:14.959Z,3.70
2023-03-02T12:45:14.643Z,3.70
2023-03-02T12:46:14.605Z,3.30
2023-03-02T12:47:15.134Z,3.70
2023-03-02T12:48:14.497Z,3.40
2023-03-02T12:49:14.642Z,3.70
2023-03-02T12:50:15.007Z,3.90
2023-03-02T12:51:14.694Z,3.50
2023-03-02T12:52:15.724Z,3.80
2023-03-02T12:53:14.473Z,3.70
2023-03-02T12:54:16.440Z,3.40
2023-03-02T12:55:14.370Z,3.90
2023-03-02T12:56:14.734Z,3.60
2023-03-02T12:57:15.469Z,3.80
2023-03-02T12:58:14.771Z,3.80
2023-03-02T12:59:16.221Z,3.80
2023-03-02T13:00:14.378Z,3.40
2023-03-02T13:01:15.274Z,3.50
2023-03-02T13:02:15.269Z,3.80
2023-03-02T13:03:14.383Z,3.70
2023-03-02T13:04:18.030Z,3.70
2023-03-02T13:05:14.677Z,4.10
2023-03-02T13:06:15.269Z,3.60
2023-03-02T13:07:14.513Z,3.70
2023-03-02T13:08:14.267Z,4.10
2023-03-02T13:09:14.425Z,4.00
2023-03-02T13:10:14.971Z,3.90
2023-03-02T13:11:14.625Z,3.70
2023-03-02T13:12:14.657Z,3.60
2023-03-02T13:13:14.991Z,3.50
2023-03-02T13:14:14.483Z,3.60
2023-03-02T13:15:14.276Z,3.70
2023-03-02T13:16:15.000Z,4.00
2023-03-02T13:17:16.652Z,3.70
2023-03-02T13:18:15.256Z,3.70
2023-03-02T13:19:14.182Z,3.90
2023-03-02T13:20:14.367Z,3.60
2023-03-02T13:21:14.409Z,3.90
2023-03-02T13:22:14.343Z,3.80
2023-03-02T13:23:15.468Z,3.70
2023-03-02T13:24:15.078Z,3.80
2023-03-02T13:25:14.124Z,4.00
2023-03-02T13:26:15.592Z,3.90
2023-03-02T13:27:14.604Z,3.80
2023-03-02T13:28:14.349Z,3.80
2023-03-02T13:29:15.003Z,3.30
2023-03-02T13:30:15.249Z,3.90
2023-03-02T13:31:14.192Z,3.60
2023-03-02T13:32:14.301Z,3.60
2023-03-02T13:33:15.376Z,3.80
2023-03-02T13:34:14.172Z,3.90
2023-03-02T13:35:14.834Z,3.80